sensor_id;sensor_type;location;lat;lon;timestamp;temperature;humidity
9425;DHT22;17139;52.140;11.636;2023-02-28T00:02:23;1.10;55.20
9425;DHT22;17139;52.140;11.636;2023-02-28T00:04:50;1.10;55.20
9425;DHT22;17139;52.140;11.636;2023-02-28T00:07:18;1.10;55.20
9425;DHT22;17139;52.140;11.636;2023-02-28T00:09:45;1.10;55.20
9425;DHT22;17139;52.140;11.636;2023-02-28T00:12:14;1.20;55.00
9425;DHT22;17139;52.140;11.636;2023-02-28T00:14:41;1.20;54.80
9425;DHT22;17139;52.140;11.636;2023-02-28T00:17:08;1.20;54.90
9425;DHT22;17139;52.140;11.636;2023-02-28T00:19:35;1.20;54.90
9425;DHT22;17139;52.140;11.636;2023-02-28T00:22:02;1.20;55.00
9425;DHT22;17139;52.140;11.636;2023-02-28T00:24:29;1.10;55.00
9425;DHT22;17139;52.140;11.636;2023-02-28T00:26:56;1.10;55.20
9425;DHT22;17139;52.140;11.636;2023-02-28T00:29:25;1.10;55.30
9425;DHT22;17139;52.140;11.636;2023-02-28T00:31:52;1.00;55.30
9425;DHT22;17139;52.140;11.636;2023-02-28T00:34:19;1.80;54.10
9425;DHT22;17139;52.140;11.636;2023-02-28T00:36:46;1.70;53.90
9425;DHT22;17139;52.140;11.636;2023-02-28T00:39:15;1.60;54.90
9425;DHT22;17139;52.140;11.636;2023-02-28T00:41:42;1.40;54.60
9425;DHT22;17139;52.140;11.636;2023-02-28T00:44:09;1.20;54.80
9425;DHT22;17139;52.140;11.636;2023-02-28T00:46:38;1.10;55.10
9425;DHT22;17139;52.140;11.636;2023-02-28T00:49:05;1.10;55.30
9425;DHT22;17139;52.140;11.636;2023-02-28T00:51:32;1.00;55.40
9425;DHT22;17139;52.140;11.636;2023-02-28T00:53:59;0.90;55.50
9425;DHT22;17139;52.140;11.636;2023-02-28T00:56:26;1.00;55.50
9425;DHT22;17139;52.140;11.636;2023-02-28T00:58:53;1.00;55.20
9425;DHT22;17139;52.140;11.636;2023-02-28T01:01:22;0.90;55.40
9425;DHT22;17139;52.140;11.636;2023-02-28T01:03:51;0.80;55.40
9425;DHT22;17139;52.140;11.636;2023-02-28T01:06:18;0.80;55.60
9425;DHT22;17139;52.140;11.636;2023-02-28T01:08:45;0.80;55.80
9425;DHT22;17139;52.140;11.636;2023-02-28T01:11:14;0.70;55.80
9425;DHT22;17139;52.140;11.636;2023-02-28T01:13:42;0.70;55.80
9425;DHT22;17139;52.140;11.636;2023-02-28T01:16:09;0.80;55.90
9425;DHT22;17139;52.140;11.636;2023-02-28T01:18:36;1.10;55.40
9425;DHT22;17139;52.140;11.636;2023-02-28T01:21:06;1.10;55.00
9425;DHT22;17139;52.140;11.636;2023-02-28T01:23:34;1.00;55.20
9425;DHT22;17139;52.140;11.636;2023-02-28T01:26:04;0.80;55.30
9425;DHT22;17139;52.140;11.636;2023-02-28T01:28:31;0.80;55.50
9425;DHT22;17139;52.140;11.636;2023-02-28T01:30:58;0.80;55.60
9425;DHT22;17139;52.140;11.636;2023-02-28T01:33:25;0.80;55.70
9425;DHT22;17139;52.140;11.636;2023-02-28T01:35:57;1.10;55.50
9425;DHT22;17139;52.140;11.636;2023-02-28T01:38:26;1.70;54.40
9425;DHT22;17139;52.140;11.636;2023-02-28T01:40:53;1.60;54.20
9425;DHT22;17139;52.140;11.636;2023-02-28T01:43:23;1.40;54.40
9425;DHT22;17139;52.140;11.636;2023-02-28T01:45:51;1.20;54.70
9425;DHT22;17139;52.140;11.636;2023-02-28T01:48:19;1.10;55.00
9425;DHT22;17139;52.140;11.636;2023-02-28T01:50:48;1.00;55.10
9425;DHT22;17139;52.140;11.636;2023-02-28T01:53:18;0.80;55.20
9425;DHT22;17139;52.140;11.636;2023-02-28T01:55:50;0.80;55.40
9425;DHT22;17139;52.140;11.636;2023-02-28T01:58:18;0.70;55.50
9425;DHT22;17139;52.140;11.636;2023-02-28T02:00:45;0.70;55.60
9425;DHT22;17139;52.140;11.636;2023-02-28T02:03:14;0.60;55.60
9425;DHT22;17139;52.140;11.636;2023-02-28T02:05:45;0.60;55.70
9425;DHT22;17139;52.140;11.636;2023-02-28T02:08:17;0.70;55.80
9425;DHT22;17139;52.140;11.636;2023-02-28T02:10:49;0.70;55.50
9425;DHT22;17139;52.140;11.636;2023-02-28T02:13:34;0.60;55.70
9425;DHT22;17139;52.140;11.636;2023-02-28T02:16:11;0.50;55.60
9425;DHT22;17139;52.140;11.636;2023-02-28T02:18:43;0.50;55.80
9425;DHT22;17139;52.140;11.636;2023-02-28T02:21:42;0.50;55.80
9425;DHT22;17139;52.140;11.636;2023-02-28T02:24:36;0.50;55.60
9425;DHT22;17139;52.140;11.636;2023-02-28T02:27:27;0.60;55.70
9425;DHT22;17139;52.140;11.636;2023-02-28T02:30:20;0.60;55.70
9425;DHT22;17139;52.140;11.636;2023-02-28T02:33:06;0.60;55.70
9425;DHT22;17139;52.140;11.636;2023-02-28T02:35:40;1.20;55.00
9425;DHT22;17139;52.140;11.636;2023-02-28T02:38:17;1.00;54.60
9425;DHT22;17139;52.140;11.636;2023-02-28T02:40:54;0.90;54.90
9425;DHT22;17139;52.140;11.636;2023-02-28T02:43:25;0.80;55.20
9425;DHT22;17139;52.140;11.636;2023-02-28T02:45:58;0.80;55.40
9425;DHT22;17139;52.140;11.636;2023-02-28T02:48:29;0.80;55.50
9425;DHT22;17139;52.140;11.636;2023-02-28T02:51:00;0.80;55.40
9425;DHT22;17139;52.140;11.636;2023-02-28T02:53:32;0.80;55.40
9425;DHT22;17139;52.140;11.636;2023-02-28T02:56:00;0.80;55.30
9425;DHT22;17139;52.140;11.636;2023-02-28T02:58:31;0.80;55.30
9425;DHT22;17139;52.140;11.636;2023-02-28T03:01:02;0.80;55.30
9425;DHT22;17139;52.140;11.636;2023-02-28T03:03:31;0.80;55.30
9425;DHT22;17139;52.140;11.636;2023-02-28T03:06:02;0.80;55.30
9425;DHT22;17139;52.140;11.636;2023-02-28T03:08:33;0.80;55.30
9425;DHT22;17139;52.140;11.636;2023-02-28T03:11:02;0.70;55.30
9425;DHT22;17139;52.140;11.636;2023-02-28T03:13:52;0.60;55.30
9425;DHT22;17139;52.140;11.636;2023-02-28T03:16:33;0.60;55.50
9425;DHT22;17139;52.140;11.636;2023-02-28T03:19:28;0.50;55.60
9425;DHT22;17139;52.140;11.636;2023-02-28T03:22:14;0.50;55.70
9425;DHT22;17139;52.140;11.636;2023-02-28T03:24:49;0.60;55.70
9425;DHT22;17139;52.140;11.636;2023-02-28T03:27:21;1.10;54.70
9425;DHT22;17139;52.140;11.636;2023-02-28T03:29:54;1.00;54.40
9425;DHT22;17139;52.140;11.636;2023-02-28T03:32:27;0.80;54.80
9425;DHT22;17139;52.140;11.636;2023-02-28T03:35:00;0.80;55.20
9425;DHT22;17139;52.140;11.636;2023-02-28T03:37:32;0.70;55.30
9425;DHT22;17139;52.140;11.636;2023-02-28T03:40:06;0.70;55.30
9425;DHT22;17139;52.140;11.636;2023-02-28T03:42:41;0.70;55.30
9425;DHT22;17139;52.140;11.636;2023-02-28T03:45:12;0.60;55.30
9425;DHT22;17139;52.140;11.636;2023-02-28T03:47:46;0.70;55.30
9425;DHT22;17139;52.140;11.636;2023-02-28T03:50:18;1.00;54.90
9425;DHT22;17139;52.140;11.636;2023-02-28T03:52:51;0.90;54.60
9425;DHT22;17139;52.140;11.636;2023-02-28T03:55:19;0.70;54.80
9425;DHT22;17139;52.140;11.636;2023-02-28T03:57:53;0.60;55.00
9425;DHT22;17139;52.140;11.636;2023-02-28T04:00:28;0.60;55.10
9425;DHT22;17139;52.140;11.636;2023-02-28T04:02:57;0.50;55.20
9425;DHT22;17139;52.140;11.636;2023-02-28T04:05:24;0.50;55.20
9425;DHT22;17139;52.140;11.636;2023-02-28T04:07:53;0.40;55.20
9425;DHT22;17139;52.140;11.636;2023-02-28T04:10:20;0.40;55.20
9425;DHT22;17139;52.140;11.636;2023-02-28T04:12:47;0.60;55.00
9425;DHT22;17139;52.140;11.636;2023-02-28T04:15:14;0.60;54.80
9425;DHT22;17139;52.140;11.636;2023-02-28T04:17:41;0.50;54.90
9425;DHT22;17139;52.140;11.636;2023-02-28T04:20:10;0.50;55.10
9425;DHT22;17139;52.140;11.636;2023-02-28T04:22:37;0.40;55.20
9425;DHT22;17139;52.140;11.636;2023-02-28T04:25:07;0.40;55.30
9425;DHT22;17139;52.140;11.636;2023-02-28T04:27:34;0.30;55.30
9425;DHT22;17139;52.140;11.636;2023-02-28T04:30:01;0.30;55.30
9425;DHT22;17139;52.140;11.636;2023-02-28T04:32:28;0.30;55.40
9425;DHT22;17139;52.140;11.636;2023-02-28T04:34:55;0.30;55.40
9425;DHT22;17139;52.140;11.636;2023-02-28T04:37:22;0.30;55.40
9425;DHT22;17139;52.140;11.636;2023-02-28T04:39:53;0.20;55.30
9425;DHT22;17139;52.140;11.636;2023-02-28T04:42:21;0.20;55.30
9425;DHT22;17139;52.140;11.636;2023-02-28T04:44:48;0.40;55.20
9425;DHT22;17139;52.140;11.636;2023-02-28T04:47:15;0.40;54.90
9425;DHT22;17139;52.140;11.636;2023-02-28T04:49:43;0.20;55.00
9425;DHT22;17139;52.140;11.636;2023-02-28T04:52:10;0.10;55.10
9425;DHT22;17139;52.140;11.636;2023-02-28T04:54:38;0.10;55.30
9425;DHT22;17139;52.140;11.636;2023-02-28T04:57:05;0.00;55.20
9425;DHT22;17139;52.140;11.636;2023-02-28T04:59:34;-0.10;55.30
9425;DHT22;17139;52.140;11.636;2023-02-28T05:02:01;-0.10;55.40
9425;DHT22;17139;52.140;11.636;2023-02-28T05:04:32;-0.20;55.50
9425;DHT22;17139;52.140;11.636;2023-02-28T05:07:00;-0.30;55.70
9425;DHT22;17139;52.140;11.636;2023-02-28T05:09:27;-0.30;55.70
9425;DHT22;17139;52.140;11.636;2023-02-28T05:11:55;-0.10;55.60
9425;DHT22;17139;52.140;11.636;2023-02-28T05:14:22;0.60;54.40
9425;DHT22;17139;52.140;11.636;2023-02-28T05:16:50;0.40;54.10
9425;DHT22;17139;52.140;11.636;2023-02-28T05:19:17;0.00;54.60
9425;DHT22;17139;52.140;11.636;2023-02-28T05:21:51;-0.20;55.10
9425;DHT22;17139;52.140;11.636;2023-02-28T05:24:18;-0.40;55.40
9425;DHT22;17139;52.140;11.636;2023-02-28T05:26:49;-0.50;55.60
9425;DHT22;17139;52.140;11.636;2023-02-28T05:29:17;-0.60;55.80
9425;DHT22;17139;52.140;11.636;2023-02-28T05:31:44;-0.70;55.90
9425;DHT22;17139;52.140;11.636;2023-02-28T05:34:12;-0.10;55.50
9425;DHT22;17139;52.140;11.636;2023-02-28T05:36:41;0.20;54.40
9425;DHT22;17139;52.140;11.636;2023-02-28T05:39:08;-0.10;54.10
9425;DHT22;17139;52.140;11.636;2023-02-28T05:41:39;-0.40;54.90
9425;DHT22;17139;52.140;11.636;2023-02-28T05:44:07;-0.60;55.40
9425;DHT22;17139;52.140;11.636;2023-02-28T05:46:34;-0.40;55.60
9425;DHT22;17139;52.140;11.636;2023-02-28T05:49:01;-0.60;55.10
9425;DHT22;17139;52.140;11.636;2023-02-28T05:51:30;-0.70;55.30
9425;DHT22;17139;52.140;11.636;2023-02-28T05:53:59;-0.90;55.60
9425;DHT22;17139;52.140;11.636;2023-02-28T05:56:27;-0.80;56.00
9425;DHT22;17139;52.140;11.636;2023-02-28T05:58:54;-0.90;55.60
9425;DHT22;17139;52.140;11.636;2023-02-28T06:01:24;-1.00;55.80
9425;DHT22;17139;52.140;11.636;2023-02-28T06:03:51;-1.10;56.00
9425;DHT22;17139;52.140;11.636;2023-02-28T06:06:19;-1.20;56.00
9425;DHT22;17139;52.140;11.636;2023-02-28T06:08:47;-1.20;56.10
9425;DHT22;17139;52.140;11.636;2023-02-28T06:11:14;-1.30;56.10
9425;DHT22;17139;52.140;11.636;2023-02-28T06:13:41;-1.30;56.10
9425;DHT22;17139;52.140;11.636;2023-02-28T06:16:09;-1.00;56.30
9425;DHT22;17139;52.140;11.636;2023-02-28T06:18:37;-0.40;55.40
9425;DHT22;17139;52.140;11.636;2023-02-28T06:21:04;-0.60;54.70
9425;DHT22;17139;52.140;11.636;2023-02-28T06:23:31;-0.80;55.10
9425;DHT22;17139;52.140;11.636;2023-02-28T06:26:00;-1.00;55.40
9425;DHT22;17139;52.140;11.636;2023-02-28T06:28:27;-1.10;55.70
9425;DHT22;17139;52.140;11.636;2023-02-28T06:30:55;-1.20;55.90
9425;DHT22;17139;52.140;11.636;2023-02-28T06:33:22;-1.20;56.00
9425;DHT22;17139;52.140;11.636;2023-02-28T06:35:51;-1.20;56.20
9425;DHT22;17139;52.140;11.636;2023-02-28T06:38:18;-0.50;55.70
9425;DHT22;17139;52.140;11.636;2023-02-28T06:40:53;-0.40;55.10
9425;DHT22;17139;52.140;11.636;2023-02-28T06:43:21;-0.60;54.90
9425;DHT22;17139;52.140;11.636;2023-02-28T06:45:49;-0.80;55.30
9425;DHT22;17139;52.140;11.636;2023-02-28T06:48:16;-0.90;55.50
9425;DHT22;17139;52.140;11.636;2023-02-28T06:50:44;-1.00;55.70
9425;DHT22;17139;52.140;11.636;2023-02-28T06:53:12;-1.00;55.80
9425;DHT22;17139;52.140;11.636;2023-02-28T06:55:40;-0.40;55.60
9425;DHT22;17139;52.140;11.636;2023-02-28T06:58:07;-0.50;54.80
9425;DHT22;17139;52.140;11.636;2023-02-28T07:00:43;-0.70;55.00
9425;DHT22;17139;52.140;11.636;2023-02-28T07:03:11;-0.80;55.30
9425;DHT22;17139;52.140;11.636;2023-02-28T07:05:39;-0.40;55.40
9425;DHT22;17139;52.140;11.636;2023-02-28T07:08:06;-0.50;54.80
9425;DHT22;17139;52.140;11.636;2023-02-28T07:10:33;-0.70;55.00
9425;DHT22;17139;52.140;11.636;2023-02-28T07:13:01;-0.80;55.30
9425;DHT22;17139;52.140;11.636;2023-02-28T07:15:28;-0.90;55.40
9425;DHT22;17139;52.140;11.636;2023-02-28T07:17:56;-1.00;55.50
9425;DHT22;17139;52.140;11.636;2023-02-28T07:20:24;-1.00;55.60
9425;DHT22;17139;52.140;11.636;2023-02-28T07:22:51;-1.00;55.70
9425;DHT22;17139;52.140;11.636;2023-02-28T07:25:22;-1.00;55.70
9425;DHT22;17139;52.140;11.636;2023-02-28T07:27:49;-1.00;55.70
9425;DHT22;17139;52.140;11.636;2023-02-28T07:30:16;-0.60;55.70
9425;DHT22;17139;52.140;11.636;2023-02-28T07:32:44;-0.60;55.00
9425;DHT22;17139;52.140;11.636;2023-02-28T07:35:12;-0.70;55.00
9425;DHT22;17139;52.140;11.636;2023-02-28T07:37:40;-0.70;55.20
9425;DHT22;17139;52.140;11.636;2023-02-28T07:40:10;-0.70;55.30
9425;DHT22;17139;52.140;11.636;2023-02-28T07:42:38;-0.70;55.30
9425;DHT22;17139;52.140;11.636;2023-02-28T07:45:07;-0.60;55.40
9425;DHT22;17139;52.140;11.636;2023-02-28T07:47:37;-0.60;55.40
9425;DHT22;17139;52.140;11.636;2023-02-28T07:50:04;-0.40;55.60
9425;DHT22;17139;52.140;11.636;2023-02-28T07:52:33;0.10;55.30
9425;DHT22;17139;52.140;11.636;2023-02-28T07:55:00;0.10;54.60
9425;DHT22;17139;52.140;11.636;2023-02-28T07:57:27;0.10;54.70
9425;DHT22;17139;52.140;11.636;2023-02-28T07:59:54;0.00;54.80
9425;DHT22;17139;52.140;11.636;2023-02-28T08:02:21;0.00;54.90
9425;DHT22;17139;52.140;11.636;2023-02-28T08:04:48;0.00;55.00
9425;DHT22;17139;52.140;11.636;2023-02-28T08:07:16;0.00;55.10
9425;DHT22;17139;52.140;11.636;2023-02-28T08:09:45;0.10;55.20
9425;DHT22;17139;52.140;11.636;2023-02-28T08:12:12;0.30;55.00
9425;DHT22;17139;52.140;11.636;2023-02-28T08:14:39;0.90;54.00
9425;DHT22;17139;52.140;11.636;2023-02-28T08:17:06;0.80;53.80
9425;DHT22;17139;52.140;11.636;2023-02-28T08:19:33;0.60;54.10
9425;DHT22;17139;52.140;11.636;2023-02-28T08:22:00;0.50;54.50
9425;DHT22;17139;52.140;11.636;2023-02-28T08:24:27;0.50;54.70
9425;DHT22;17139;52.140;11.636;2023-02-28T08:26:56;0.50;54.90
9425;DHT22;17139;52.140;11.636;2023-02-28T08:29:23;0.50;54.90
9425;DHT22;17139;52.140;11.636;2023-02-28T08:31:50;0.50;54.90
9425;DHT22;17139;52.140;11.636;2023-02-28T08:34:17;0.50;54.80
9425;DHT22;17139;52.140;11.636;2023-02-28T08:36:44;1.00;53.90
9425;DHT22;17139;52.140;11.636;2023-02-28T08:39:11;1.10;53.90
9425;DHT22;17139;52.140;11.636;2023-02-28T08:41:39;1.00;53.90
9425;DHT22;17139;52.140;11.636;2023-02-28T08:44:08;0.90;54.30
9425;DHT22;17139;52.140;11.636;2023-02-28T08:46:35;0.90;54.30
9425;DHT22;17139;52.140;11.636;2023-02-28T08:49:02;0.80;54.40
9425;DHT22;17139;52.140;11.636;2023-02-28T08:51:29;0.90;54.60
9425;DHT22;17139;52.140;11.636;2023-02-28T08:53:59;0.90;54.60
9425;DHT22;17139;52.140;11.636;2023-02-28T08:56:26;1.60;52.80
9425;DHT22;17139;52.140;11.636;2023-02-28T08:58:55;1.60;53.00
9425;DHT22;17139;52.140;11.636;2023-02-28T09:01:25;1.40;53.40
9425;DHT22;17139;52.140;11.636;2023-02-28T09:03:54;1.40;53.80
9425;DHT22;17139;52.140;11.636;2023-02-28T09:06:24;1.30;54.00
9425;DHT22;17139;52.140;11.636;2023-02-28T09:08:51;1.30;54.10
9425;DHT22;17139;52.140;11.636;2023-02-28T09:11:19;1.30;54.10
9425;DHT22;17139;52.140;11.636;2023-02-28T09:13:46;1.30;54.10
9425;DHT22;17139;52.140;11.636;2023-02-28T09:16:14;1.50;53.70
9425;DHT22;17139;52.140;11.636;2023-02-28T09:18:44;1.50;53.60
9425;DHT22;17139;52.140;11.636;2023-02-28T09:21:15;1.50;53.70
9425;DHT22;17139;52.140;11.636;2023-02-28T09:23:43;1.50;53.80
9425;DHT22;17139;52.140;11.636;2023-02-28T09:26:14;1.90;52.10
9425;DHT22;17139;52.140;11.636;2023-02-28T09:28:41;1.90;52.40
9425;DHT22;17139;52.140;11.636;2023-02-28T09:31:12;1.80;52.90
9425;DHT22;17139;52.140;11.636;2023-02-28T09:33:39;1.80;53.30
9425;DHT22;17139;52.140;11.636;2023-02-28T09:36:08;1.70;53.30
9425;DHT22;17139;52.140;11.636;2023-02-28T09:38:35;1.80;53.40
9425;DHT22;17139;52.140;11.636;2023-02-28T09:41:08;1.80;53.50
9425;DHT22;17139;52.140;11.636;2023-02-28T09:43:41;1.80;53.50
9425;DHT22;17139;52.140;11.636;2023-02-28T09:46:18;1.90;53.60
9425;DHT22;17139;52.140;11.636;2023-02-28T09:48:48;1.90;53.50
9425;DHT22;17139;52.140;11.636;2023-02-28T09:51:29;2.30;51.70
9425;DHT22;17139;52.140;11.636;2023-02-28T09:53:57;3.10;49.00
9425;DHT22;17139;52.140;11.636;2023-02-28T09:56:26;2.80;50.50
9425;DHT22;17139;52.140;11.636;2023-02-28T09:58:57;2.60;51.50
9425;DHT22;17139;52.140;11.636;2023-02-28T10:01:29;2.40;52.10
9425;DHT22;17139;52.140;11.636;2023-02-28T10:04:00;2.40;52.40
9425;DHT22;17139;52.140;11.636;2023-02-28T10:06:36;2.30;52.70
9425;DHT22;17139;52.140;11.636;2023-02-28T10:09:10;2.30;52.70
9425;DHT22;17139;52.140;11.636;2023-02-28T10:11:40;2.30;52.80
9425;DHT22;17139;52.140;11.636;2023-02-28T10:14:13;2.30;52.90
9425;DHT22;17139;52.140;11.636;2023-02-28T10:16:43;2.40;52.10
9425;DHT22;17139;52.140;11.636;2023-02-28T10:19:21;2.50;52.30
9425;DHT22;17139;52.140;11.636;2023-02-28T10:21:56;2.40;52.60
9425;DHT22;17139;52.140;11.636;2023-02-28T10:24:30;2.40;52.80
9425;DHT22;17139;52.140;11.636;2023-02-28T10:27:09;2.40;52.80
9425;DHT22;17139;52.140;11.636;2023-02-28T10:29:41;2.40;52.90
9425;DHT22;17139;52.140;11.636;2023-02-28T10:32:12;2.40;53.00
9425;DHT22;17139;52.140;11.636;2023-02-28T10:34:40;2.40;53.00
9425;DHT22;17139;52.140;11.636;2023-02-28T10:37:09;2.40;53.00
9425;DHT22;17139;52.140;11.636;2023-02-28T10:39:39;3.10;50.10
9425;DHT22;17139;52.140;11.636;2023-02-28T10:42:20;3.00;51.00
9425;DHT22;17139;52.140;11.636;2023-02-28T10:44:47;2.90;51.60
9425;DHT22;17139;52.140;11.636;2023-02-28T10:47:16;2.80;52.10
9425;DHT22;17139;52.140;11.636;2023-02-28T10:49:48;2.70;52.30
9425;DHT22;17139;52.140;11.636;2023-02-28T10:52:33;2.70;52.40
9425;DHT22;17139;52.140;11.636;2023-02-28T10:55:20;2.70;52.60
9425;DHT22;17139;52.140;11.636;2023-02-28T10:57:47;2.70;52.70
9425;DHT22;17139;52.140;11.636;2023-02-28T11:00:17;2.70;52.20
9425;DHT22;17139;52.140;11.636;2023-02-28T11:02:45;3.00;51.10
9425;DHT22;17139;52.140;11.636;2023-02-28T11:05:27;3.00;51.70
9425;DHT22;17139;52.140;11.636;2023-02-28T11:08:05;2.90;52.10
9425;DHT22;17139;52.140;11.636;2023-02-28T11:10:33;2.90;52.50
9425;DHT22;17139;52.140;11.636;2023-02-28T11:13:01;2.80;52.40
9425;DHT22;17139;52.140;11.636;2023-02-28T11:15:30;2.80;52.40
9425;DHT22;17139;52.140;11.636;2023-02-28T11:18:00;2.80;52.50
9425;DHT22;17139;52.140;11.636;2023-02-28T11:20:29;2.80;52.70
9425;DHT22;17139;52.140;11.636;2023-02-28T11:22:59;2.90;52.70
9425;DHT22;17139;52.140;11.636;2023-02-28T11:25:31;2.90;52.80
9425;DHT22;17139;52.140;11.636;2023-02-28T11:28:00;2.90;52.60
9425;DHT22;17139;52.140;11.636;2023-02-28T11:30:33;2.90;53.10
9425;DHT22;17139;52.140;11.636;2023-02-28T11:33:13;3.10;51.50
9425;DHT22;17139;52.140;11.636;2023-02-28T11:35:46;3.10;51.90
9425;DHT22;17139;52.140;11.636;2023-02-28T11:38:16;3.00;52.20
9425;DHT22;17139;52.140;11.636;2023-02-28T11:40:48;3.00;52.40
9425;DHT22;17139;52.140;11.636;2023-02-28T11:43:28;3.10;52.60
9425;DHT22;17139;52.140;11.636;2023-02-28T11:46:10;3.10;52.60
9425;DHT22;17139;52.140;11.636;2023-02-28T11:48:47;3.10;52.60
9425;DHT22;17139;52.140;11.636;2023-02-28T11:51:20;3.20;52.70
9425;DHT22;17139;52.140;11.636;2023-02-28T11:54:15;3.30;52.70
9425;DHT22;17139;52.140;11.636;2023-02-28T11:56:51;3.30;52.50
9425;DHT22;17139;52.140;11.636;2023-02-28T11:59:37;4.10;49.40
9425;DHT22;17139;52.140;11.636;2023-02-28T12:02:28;3.90;50.60
9425;DHT22;17139;52.140;11.636;2023-02-28T12:05:14;3.60;51.50
9425;DHT22;17139;52.140;11.636;2023-02-28T12:07:55;3.50;51.90
9425;DHT22;17139;52.140;11.636;2023-02-28T12:10:26;3.50;52.00
9425;DHT22;17139;52.140;11.636;2023-02-28T12:13:07;3.40;51.90
9425;DHT22;17139;52.140;11.636;2023-02-28T12:15:45;3.40;52.10
9425;DHT22;17139;52.140;11.636;2023-02-28T12:18:31;3.40;52.10
9425;DHT22;17139;52.140;11.636;2023-02-28T12:21:10;3.40;52.10
9425;DHT22;17139;52.140;11.636;2023-02-28T12:24:07;3.80;49.90
9425;DHT22;17139;52.140;11.636;2023-02-28T12:26:46;4.50;47.90
9425;DHT22;17139;52.140;11.636;2023-02-28T12:29:17;4.20;49.70
9425;DHT22;17139;52.140;11.636;2023-02-28T12:31:49;4.10;50.60
9425;DHT22;17139;52.140;11.636;2023-02-28T12:34:19;4.00;51.10
9425;DHT22;17139;52.140;11.636;2023-02-28T12:36:48;3.90;51.10
9425;DHT22;17139;52.140;11.636;2023-02-28T12:39:23;3.90;51.50
9425;DHT22;17139;52.140;11.636;2023-02-28T12:41:54;3.80;51.60
9425;DHT22;17139;52.140;11.636;2023-02-28T12:44:27;3.80;51.70
9425;DHT22;17139;52.140;11.636;2023-02-28T12:46:58;4.10;50.60
9425;DHT22;17139;52.140;11.636;2023-02-28T12:49:31;4.60;48.00
9425;DHT22;17139;52.140;11.636;2023-02-28T12:52:00;4.50;49.60
9425;DHT22;17139;52.140;11.636;2023-02-28T12:54:32;4.30;50.30
9425;DHT22;17139;52.140;11.636;2023-02-28T12:57:08;4.20;50.60
9425;DHT22;17139;52.140;11.636;2023-02-28T12:59:41;4.20;51.00
9425;DHT22;17139;52.140;11.636;2023-02-28T13:02:23;4.20;51.30
9425;DHT22;17139;52.140;11.636;2023-02-28T13:08:20;4.10;51.40
9425;DHT22;17139;52.140;11.636;2023-02-28T13:10:51;4.20;50.60
9425;DHT22;17139;52.140;11.636;2023-02-28T13:13:24;4.30;51.20
9425;DHT22;17139;52.140;11.636;2023-02-28T13:16:03;4.20;51.30
9425;DHT22;17139;52.140;11.636;2023-02-28T13:18:35;4.30;51.50
9425;DHT22;17139;52.140;11.636;2023-02-28T13:21:07;4.20;51.70
9425;DHT22;17139;52.140;11.636;2023-02-28T13:23:39;4.20;51.70
9425;DHT22;17139;52.140;11.636;2023-02-28T13:26:07;4.20;51.80
9425;DHT22;17139;52.140;11.636;2023-02-28T13:34:36;4.40;51.00
9425;DHT22;17139;52.140;11.636;2023-02-28T13:37:35;4.30;51.30
9425;DHT22;17139;52.140;11.636;2023-02-28T13:40:27;4.20;51.10
9425;DHT22;17139;52.140;11.636;2023-02-28T13:42:55;4.10;51.40
9425;DHT22;17139;52.140;11.636;2023-02-28T13:45:26;4.70;48.60
9425;DHT22;17139;52.140;11.636;2023-02-28T13:47:55;4.60;49.80
9425;DHT22;17139;52.140;11.636;2023-02-28T13:50:33;4.50;50.50
9425;DHT22;17139;52.140;11.636;2023-02-28T13:53:30;4.40;50.70
9425;DHT22;17139;52.140;11.636;2023-02-28T13:56:06;4.40;51.10
9425;DHT22;17139;52.140;11.636;2023-02-28T13:58:52;4.40;51.40
9425;DHT22;17139;52.140;11.636;2023-02-28T14:01:50;4.40;51.30
9425;DHT22;17139;52.140;11.636;2023-02-28T14:05:00;4.50;51.40
9425;DHT22;17139;52.140;11.636;2023-02-28T14:07:32;4.50;51.50
9425;DHT22;17139;52.140;11.636;2023-02-28T14:10:02;4.70;50.40
9425;DHT22;17139;52.140;11.636;2023-02-28T14:12:57;5.20;48.50
9425;DHT22;17139;52.140;11.636;2023-02-28T14:15:49;5.10;49.80
9425;DHT22;17139;52.140;11.636;2023-02-28T14:18:27;4.90;50.50
9425;DHT22;17139;52.140;11.636;2023-02-28T14:21:00;4.80;51.10
9425;DHT22;17139;52.140;11.636;2023-02-28T14:26:45;4.70;51.40
9425;DHT22;17139;52.140;11.636;2023-02-28T14:29:42;4.70;51.60
9425;DHT22;17139;52.140;11.636;2023-02-28T14:32:15;4.50;51.60
9425;DHT22;17139;52.140;11.636;2023-02-28T14:34:54;4.90;49.30
9425;DHT22;17139;52.140;11.636;2023-02-28T14:37:27;5.60;46.70
9425;DHT22;17139;52.140;11.636;2023-02-28T14:39:57;5.30;48.60
9425;DHT22;17139;52.140;11.636;2023-02-28T14:42:28;5.00;49.60
9425;DHT22;17139;52.140;11.636;2023-02-28T14:44:56;4.90;50.30
9425;DHT22;17139;52.140;11.636;2023-02-28T14:47:27;4.80;50.70
9425;DHT22;17139;52.140;11.636;2023-02-28T14:49:55;4.80;50.90
9425;DHT22;17139;52.140;11.636;2023-02-28T14:52:24;4.70;51.10
9425;DHT22;17139;52.140;11.636;2023-02-28T14:54:54;4.60;51.30
9425;DHT22;17139;52.140;11.636;2023-02-28T14:57:25;4.40;51.30
9425;DHT22;17139;52.140;11.636;2023-02-28T14:59:59;4.40;51.50
9425;DHT22;17139;52.140;11.636;2023-02-28T15:02:30;4.40;51.60
9425;DHT22;17139;52.140;11.636;2023-02-28T15:04:59;4.40;51.70
9425;DHT22;17139;52.140;11.636;2023-02-28T15:07:31;4.30;51.80
9425;DHT22;17139;52.140;11.636;2023-02-28T15:10:17;4.30;51.80
9425;DHT22;17139;52.140;11.636;2023-02-28T15:12:52;4.30;51.90
9425;DHT22;17139;52.140;11.636;2023-02-28T15:15:22;4.20;52.10
9425;DHT22;17139;52.140;11.636;2023-02-28T15:17:56;4.20;52.10
9425;DHT22;17139;52.140;11.636;2023-02-28T15:20:24;4.20;52.10
9425;DHT22;17139;52.140;11.636;2023-02-28T15:22:54;4.20;52.10
9425;DHT22;17139;52.140;11.636;2023-02-28T15:25:22;4.10;52.00
9425;DHT22;17139;52.140;11.636;2023-02-28T15:27:53;4.80;49.10
9425;DHT22;17139;52.140;11.636;2023-02-28T15:30:26;5.20;47.20
9425;DHT22;17139;52.140;11.636;2023-02-28T15:33:06;4.90;49.00
9425;DHT22;17139;52.140;11.636;2023-02-28T15:35:34;4.60;50.20
9425;DHT22;17139;52.140;11.636;2023-02-28T15:38:03;4.70;49.50
9425;DHT22;17139;52.140;11.636;2023-02-28T15:40:33;4.50;50.10
9425;DHT22;17139;52.140;11.636;2023-02-28T15:43:06;4.90;48.70
9425;DHT22;17139;52.140;11.636;2023-02-28T15:45:39;4.60;49.70
9425;DHT22;17139;52.140;11.636;2023-02-28T15:48:19;5.10;47.30
9425;DHT22;17139;52.140;11.636;2023-02-28T15:50:49;4.70;48.90
9425;DHT22;17139;52.140;11.636;2023-02-28T15:53:19;4.40;50.00
9425;DHT22;17139;52.140;11.636;2023-02-28T15:55:57;4.20;50.60
9425;DHT22;17139;52.140;11.636;2023-02-28T15:58:26;4.00;51.00
9425;DHT22;17139;52.140;11.636;2023-02-28T16:01:04;3.90;51.50
9425;DHT22;17139;52.140;11.636;2023-02-28T16:03:44;3.80;51.60
9425;DHT22;17139;52.140;11.636;2023-02-28T16:06:39;3.70;51.70
9425;DHT22;17139;52.140;11.636;2023-02-28T16:09:10;4.20;49.60
9425;DHT22;17139;52.140;11.636;2023-02-28T16:11:42;3.90;50.40
9425;DHT22;17139;52.140;11.636;2023-02-28T16:14:16;3.70;51.00
9425;DHT22;17139;52.140;11.636;2023-02-28T16:16:45;3.50;51.40
9425;DHT22;17139;52.140;11.636;2023-02-28T16:19:12;3.40;51.60
9425;DHT22;17139;52.140;11.636;2023-02-28T16:21:39;3.40;51.80
9425;DHT22;17139;52.140;11.636;2023-02-28T16:24:07;3.30;52.00